Latest Weather Observations for Newman Airport

IDW60801

Issued at 10:05 am WST Thursday 24 July 2014 (issued every 30 minutes, with the page automatically refreshed every 10 minutes)

About weather observations | Map of weather stations | Latest weather observations for WA | Other Formats
Station Details ID: 007176 Name: NEWMAN AERO Lat: -23.42 Lon: 119.80 Height: 524.0 m
Data from the previous 72 hours. | See also: Recent months at Newman Airport
Date/Time
WST
Temp
°C
App
Temp
°C
Dew
Point
Rel
Hum
%
Delta-T
°C
Wind Press
QNH
hPa
Press
MSL
hPa
Rain
since 9 am
mm
Dir
 
Spd
km/h
Gust
km/h
Spd
kts
Gust
kts
24/10:00am 12.8 7.8 4.8 58 3.8 SSE 20 30 11 16 1024.1 - 0.0
24/09:30am 11.8 6.9 4.3 60 3.5 SE 19 28 10 15 1024.2 - 0.0
24/09:00am 10.7 5.6 4.2 64 3.0 SSE 20 32 11 17 1024.3 1023.4 0.0
24/08:30am 9.7 4.6 3.9 67 2.6 SSE 20 30 11 16 1024.0 - 0.0
24/08:00am 8.6 3.6 3.4 70 2.3 SSE 19 26 10 14 1023.2 - 0.0
24/07:30am 7.7 3.0 3.2 73 2.0 S 17 20 9 11 1022.6 - 0.0
24/07:00am 7.1 2.8 3.0 75 1.8 S 15 19 8 10 1022.2 - 0.0
24/06:30am 7.1 2.8 3.0 75 1.8 S 15 20 8 11 1021.9 - 0.0
24/06:00am 7.5 2.8 3.2 74 1.9 S 17 20 9 11 1021.6 1020.7 0.0
24/05:30am 7.7 3.0 3.4 74 1.9 S 17 24 9 13 1021.0 - 0.0
24/05:00am 7.4 2.5 4.0 79 1.5 S 19 24 10 13 1020.8 - 0.0
24/04:30am 5.6 2.2 3.9 89 0.7 SW 11 11 6 6 1020.5 - 0.0
24/04:00am 5.4 2.3 3.7 89 0.7 WSW 9 9 5 5 1020.3 - 0.0
24/03:30am 6.0 2.9 3.8 86 1.0 WSW 9 11 5 6 1020.3 - 0.0
24/03:00am 6.5 3.1 3.8 83 1.2 WSW 11 15 6 8 1020.3 1019.4 0.0
24/02:30am 6.6 3.6 4.3 85 1.0 WSW 9 9 5 5 1020.2 - 0.0
24/02:00am 6.6 3.7 4.6 87 0.9 WSW 9 11 5 6 1020.2 - 0.0
24/01:30am 6.7 3.9 5.0 89 0.8 WSW 9 11 5 6 1020.2 - 0.0
24/01:00am 7.2 4.9 5.7 90 0.7 SSW 7 9 4 5 1020.2 - 0.0
24/12:30am 7.4 5.1 5.9 90 0.7 SSW 7 9 4 5 1020.4 - 0.0
24/12:00am 7.5 5.3 6.1 91 0.7 SSW 7 9 4 5 1020.3 1019.4 0.0
 
Date/Time
WST
Temp
°C
App
Temp
°C
Dew
Point
Rel
Hum
%
Delta-T
°C
Wind Press
QNH
hPa
Press
MSL
hPa
Rain
since 9 am
mm
Dir
 
Spd
km/h
Gust
km/h
Spd
kts
Gust
kts
23/11:30pm 7.8 5.3 6.6 92 0.6 WSW 9 11 5 6 1020.5 - 0.0
23/11:00pm 8.1 5.6 6.7 91 0.7 SSW 9 11 5 6 1020.6 - 0.0
23/10:30pm 8.9 6.8 6.5 85 1.1 SSW 7 9 4 5 1020.6 - 0.0
23/10:00pm 9.1 7.1 7.2 88 0.9 SW 7 11 4 6 1020.6 - 0.0
23/09:30pm 10.0 7.7 7.4 84 1.3 S 9 9 5 5 1020.7 - 0.0
23/09:00pm 9.7 8.1 8.1 90 0.8 WSW 6 7 3 4 1020.5 1019.6 0.0
23/08:30pm 10.1 9.7 8.2 88 0.9 CALM 0 0 0 0 1020.3 - 0.0
23/08:00pm 11.2 11.3 10.1 93 0.6 CALM 0 0 0 0 1020.2 - 0.0
23/07:30pm 12.0 11.9 9.6 85 1.3 CALM 0 0 0 0 1020.1 - 0.0
23/07:00pm 13.0 12.7 8.7 75 2.2 CALM 0 0 0 0 1019.9 - 0.0
23/06:30pm 14.4 13.9 7.9 65 3.3 CALM 0 6 0 3 1019.7 - 0.0
23/06:00pm 15.5 13.0 3.9 46 5.5 SSE 6 7 3 4 1019.6 1018.6 0.0
23/05:30pm 16.9 14.0 2.5 38 6.7 SSE 7 11 4 6 1019.3 - 0.0
23/05:00pm 17.8 14.3 1.3 33 7.6 S 9 13 5 7 1019.2 - 0.0
23/04:30pm 18.1 14.5 0.7 31 7.9 SE 9 17 5 9 1019.0 - 0.0
23/04:00pm 18.2 15.2 0.8 31 7.9 S 6 13 3 7 1018.7 - 0.0
23/03:30pm 17.9 13.5 0.1 30 8.0 SSE 13 22 7 12 1018.7 - 0.0
23/03:00pm 18.2 14.3 1.3 32 7.8 S 11 20 6 11 1018.8 1017.9 0.0
23/02:30pm 17.7 13.5 1.7 34 7.4 SE 13 19 7 10 1018.9 - 0.0
23/02:00pm 17.8 14.1 2.2 35 7.3 S 11 19 6 10 1019.3 - 0.0
23/01:30pm 17.4 13.2 1.8 35 7.2 SSE 13 20 7 11 1019.6 - 0.0
23/01:00pm 16.2 11.9 1.1 36 6.8 SSE 13 24 7 13 1020.1 - 0.0
23/12:30pm 16.4 12.4 3.1 41 6.3 SSE 13 20 7 11 1020.6 - 0.0
23/12:00pm 15.9 11.6 3.4 43 5.9 S 15 20 8 11 1021.1 1020.2 0.0
23/11:30am 15.1 11.1 3.0 44 5.6 SSE 13 17 7 9 1021.6 - 0.0
23/11:00am 14.8 10.5 3.3 46 5.4 SSE 15 30 8 16 1022.1 - 0.0
23/10:30am 14.4 9.9 4.1 50 4.9 SSE 17 24 9 13 1022.4 - 0.0
23/10:00am 13.4 8.7 2.9 49 4.8 SE 17 24 9 13 1022.4 - 0.0
23/09:30am 12.8 7.6 3.7 54 4.2 SSE 20 30 11 16 1022.5 - 0.0
23/09:00am 12.1 7.2 4.3 59 3.6 SSE 19 26 10 14 1022.6 1021.7 0.0
23/08:30am 10.8 5.9 4.3 64 3.0 SSE 19 26 10 14 1022.6 - 0.0
23/08:00am 9.9 5.5 4.9 71 2.3 S 17 26 9 14 1022.3 - 0.0
23/07:30am 8.1 4.5 5.2 82 1.3 S 13 17 7 9 1022.1 - 0.0
23/07:00am 6.5 3.3 5.0 90 0.7 SSW 11 13 6 7 1021.8 - 0.0
23/06:30am 6.4 3.5 4.9 90 0.7 S 9 11 5 6 1021.3 - 0.0
23/06:00am 6.5 4.0 5.0 90 0.7 S 7 9 4 5 1021.1 1020.2 0.0
23/05:30am 7.0 3.8 5.2 88 0.8 SSW 11 11 6 6 1020.9 - 0.0
23/05:00am 7.3 4.5 5.3 87 0.9 S 9 11 5 6 1020.6 - 0.0
23/04:30am 7.2 4.4 5.3 88 0.9 SSW 9 11 5 6 1020.6 - 0.0
23/04:00am 7.3 4.9 5.4 88 0.9 S 7 9 4 5 1020.3 - 0.0
23/03:30am 7.8 5.5 5.6 86 1.0 S 7 9 4 5 1020.3 - 0.0
23/03:00am 8.3 5.6 5.6 83 1.3 SSW 9 9 5 5 1020.3 1019.4 0.0
23/02:30am 9.0 6.3 5.6 79 1.6 SSW 9 13 5 7 1020.3 - 0.0
23/02:00am 10.0 6.4 5.2 72 2.2 SSW 13 17 7 9 1020.4 - 0.0
23/01:30am 9.6 6.9 5.8 77 1.8 SSW 9 13 5 7 1020.4 - 0.0
23/01:00am 10.5 7.4 5.7 72 2.3 SSW 11 15 6 8 1020.4 - 0.0
23/12:30am 11.0 8.0 6.0 71 2.4 SSW 11 15 6 8 1020.6 - 0.0
23/12:00am 11.6 8.2 5.9 68 2.7 SSW 13 17 7 9 1020.5 1019.6 0.0
 
Date/Time
WST
Temp
°C
App
Temp
°C
Dew
Point
Rel
Hum
%
Delta-T
°C
Wind Press
QNH
hPa
Press
MSL
hPa
Rain
since 9 am
mm
Dir
 
Spd
km/h
Gust
km/h
Spd
kts
Gust
kts
22/11:30pm 12.1 8.8 6.2 67 2.9 SSW 13 17 7 9 1020.7 - 0.0
22/11:00pm 12.9 9.6 6.3 64 3.2 SSW 13 17 7 9 1020.6 - 0.0
22/10:30pm 13.3 9.7 6.6 64 3.3 SSW 15 19 8 10 1020.5 - 0.0
22/10:00pm 12.8 10.4 7.0 68 2.9 SW 9 13 5 7 1020.4 - 0.0
22/09:30pm 13.3 11.0 7.3 67 3.0 SSW 9 15 5 8 1020.1 - 0.0
22/09:00pm 13.1 10.8 7.3 68 2.9 SW 9 13 5 7 1019.9 1019.0 0.0
22/08:30pm 13.4 11.0 7.2 66 3.1 SW 9 13 5 7 1019.6 - 0.0
22/08:00pm 14.3 11.8 6.4 59 3.9 SW 9 11 5 6 1019.4 - 0.0
22/07:30pm 15.4 12.4 5.9 53 4.7 SW 11 15 6 8 1019.2 - 0.0
22/07:00pm 15.6 12.6 6.1 53 4.7 SW 11 13 6 7 1018.8 - 0.0
22/06:30pm 16.2 13.3 6.3 52 5.0 SW 11 13 6 7 1018.5 - 0.0
22/06:00pm 17.3 14.2 5.6 46 5.8 SW 11 13 6 7 1018.0 1017.0 0.0
22/05:30pm 19.0 14.8 4.0 37 7.3 WSW 15 20 8 11 1017.5 - 0.0
22/05:00pm 19.9 14.7 2.7 32 8.2 SW 19 28 10 15 1017.1 - 0.0
22/04:30pm 20.8 16.6 4.0 33 8.3 SW 15 26 8 14 1017.1 - 0.0
22/04:00pm 20.9 15.8 3.2 31 8.6 SW 19 26 10 14 1017.0 - 0.0
22/03:30pm 20.9 16.0 4.0 33 8.4 SW 19 30 10 16 1016.8 - 0.0
22/03:00pm 21.2 16.6 5.5 36 8.0 WSW 19 32 10 17 1016.8 1015.9 0.0
22/02:30pm 21.2 16.5 5.9 37 7.9 SW 20 32 11 17 1016.8 - 0.0
22/02:00pm 20.9 16.4 6.1 38 7.6 W 19 30 10 16 1016.9 - 0.0
22/01:30pm 20.7 16.2 6.3 39 7.4 SW 19 28 10 15 1017.0 - 0.0
22/01:00pm 20.8 17.4 7.8 43 6.9 WSW 15 24 8 13 1017.3 - 0.0
22/12:30pm 20.1 15.8 7.1 43 6.8 SW 19 30 10 16 1017.9 - 0.0
22/12:00pm 20.0 16.0 8.4 47 6.2 SW 19 24 10 13 1018.2 1017.3 0.0
22/11:30am 19.5 15.6 8.8 50 5.7 SW 19 32 10 17 1018.5 - 0.0
22/11:00am 18.9 15.8 10.2 57 4.8 SSW 17 24 9 13 1019.0 - 0.0
22/10:30am 17.6 15.0 10.7 64 3.8 SW 15 22 8 12 1019.4 - 0.0
22/10:00am 16.6 13.5 11.7 73 2.7 SW 19 24 10 13 1019.8 - 0.0
22/09:30am 15.7 12.9 12.6 82 1.8 SW 19 28 10 15 1019.9 - 0.0
22/09:07am 15.5 12.7 13.3 87 1.3 SW 20 28 11 15 1019.6 - 0.0
22/09:00am 15.3 12.5 13.3 88 1.1 WSW 20 28 11 15 1019.4 1018.5 25.2
22/08:33am 15.4 14.0 14.4 94 0.6 SW 15 20 8 11 1019.4 - 25.2
22/08:30am 15.3 13.8 14.2 93 0.6 SW 15 20 8 11 1019.4 - 25.2
22/08:07am 14.7 13.0 14.7 100 0.0 WSW 17 22 9 12 1019.3 - 25.2
22/08:00am 14.7 - 14.9 - - WSW 15 20 8 11 1019.3 - 25.2
22/07:30am 14.5 - 14.8 - - WSW 15 24 8 13 1018.9 - 25.2
22/07:00am 14.3 - 14.8 - - W 4 7 2 4 1018.5 - 25.2
22/06:30am 14.5 - 15.0 - - W 2 6 1 3 1018.3 - 25.2
22/06:00am 14.3 - 14.9 - - NW 6 7 3 4 1017.8 1016.8 25.2
22/05:30am 14.3 - 14.9 - - N 7 11 4 6 1017.3 - 25.2
22/05:00am 14.1 - 14.7 - - N 6 9 3 5 1017.2 - 25.2
22/04:30am 13.9 - 14.5 - - CALM 0 0 0 0 1017.1 - 25.2
22/04:00am 13.8 - 14.4 - - N 6 7 3 4 1017.2 - 25.2
22/03:30am 13.6 - 14.1 - - N 7 9 4 5 1017.1 - 25.2
22/03:00am 13.3 - 13.8 - - NE 9 11 5 6 1017.0 1016.1 25.2
22/02:30am 13.3 - 13.8 - - NNE 6 9 3 5 1017.2 - 25.2
22/02:00am 13.3 - 13.8 - - NNE 6 9 3 5 1017.0 - 25.2
22/01:30am 13.3 - 13.8 - - ENE 6 7 3 4 1017.1 - 25.2
22/01:14am 13.3 - 13.8 - - ENE 6 9 3 5 1017.0 - 25.2
22/01:00am 13.3 - 13.8 - - E 7 9 4 5 1017.1 - 25.2
22/12:30am 13.4 - 13.9 - - ESE 7 9 4 5 1017.2 - 25.0
22/12:00am 13.5 - 14.0 - - ESE 6 9 3 5 1017.6 1016.6 25.0
 
Date/Time
WST
Temp
°C
App
Temp
°C
Dew
Point
Rel
Hum
%
Delta-T
°C
Wind Press
QNH
hPa
Press
MSL
hPa
Rain
since 9 am
mm
Dir
 
Spd
km/h
Gust
km/h
Spd
kts
Gust
kts
21/11:30pm 13.5 - 14.0 - - CALM 0 0 0 0 1017.8 - 25.0
21/11:00pm 13.5 - 14.0 - - SSW 7 9 4 5 1018.0 - 25.0
21/10:30pm 13.5 - 14.0 - - E 7 9 4 5 1018.0 - 25.0
21/10:00pm 13.6 - 14.1 - - E 9 13 5 7 1018.2 - 25.0
21/09:30pm 13.6 - 14.1 - - ENE 11 15 6 8 1018.4 - 24.6
21/09:00pm 13.7 - 14.2 - - ENE 11 17 6 9 1018.4 1017.5 23.8
21/08:30pm 13.8 - 14.3 - - NNW 2 9 1 5 1018.7 - 23.0
21/08:00pm 13.7 - 14.2 - - ENE 6 9 3 5 1018.3 - 20.0
21/07:30pm 13.7 - 14.2 - - NE 7 11 4 6 1018.3 - 18.8
21/07:00pm 13.5 - 14.0 - - CALM 0 0 0 0 1018.1 - 14.8
21/06:47pm 13.4 - 13.9 - - NE 4 9 2 5 1017.9 - 14.6
21/06:30pm 13.3 - 13.8 - - NNE 6 9 3 5 1017.8 - 13.6
21/06:00pm 13.2 - 13.7 - - E 7 11 4 6 1017.6 1016.6 12.0
21/05:30pm 13.2 - 13.7 - - ENE 9 13 5 7 1017.6 - 10.6
21/05:00pm 13.2 - 13.5 - - NE 11 15 6 8 1017.2 - 5.8
21/04:35pm 13.4 - 13.6 - - ENE 7 13 4 7 1017.3 - 3.0
21/04:30pm 13.3 - 13.5 - - ENE 6 9 3 5 1017.3 - 2.6
21/04:00pm 13.4 13.0 13.1 98 0.2 NE 7 9 4 5 1017.3 - 1.0
21/03:30pm 13.7 12.5 12.8 94 0.5 NNE 11 17 6 9 1017.1 - 0.4
21/03:00pm 16.0 13.2 11.4 74 2.5 NE 17 24 9 13 1017.0 1016.1 0.0
21/02:30pm 18.0 15.2 9.9 59 4.4 NNE 15 20 8 11 1017.1 - 0.0
21/02:00pm 18.5 16.2 7.3 48 5.8 NE 9 13 5 7 1017.2 - 0.0
21/01:30pm 19.2 15.4 6.0 42 6.7 ENE 15 22 8 12 1017.3 - 0.0
21/01:00pm 19.8 15.2 3.9 35 7.8 NE 17 24 9 13 1017.8 - 0.0
21/12:30pm 18.5 13.8 3.2 36 7.3 NE 17 24 9 13 1018.5 - 0.0
21/12:00pm 18.1 14.5 3.2 37 7.1 NE 11 15 6 8 1019.3 1018.4 0.0
21/11:30am 17.4 13.6 1.8 35 7.2 ENE 11 15 6 8 1019.9 - 0.0
21/11:00am 16.8 12.7 2.4 38 6.7 E 13 19 7 10 1020.4 - 0.0
21/10:30am 16.4 12.3 2.1 38 6.6 NE 13 17 7 9 1020.7 - 0.0

Other Formats:

Comma delimited format used in spreadsheet applications
http://www.bom.gov.au/fwo/IDW60801/IDW60801.94317.axf

JavaScript Object Notation format (JSON) in row-major order
http://www.bom.gov.au/fwo/IDW60801/IDW60801.94317.json